Flight Track Log - Related Links

Times and Time Zones

All times are in EDT time to prevent confusion due to time zone crossing. See the DAL268 flight status page for this flight to view local times or setup timezone preferences in your user account.

Time Position Orientation Groundspeed Altitude Reporting Facility
EDT Latitude Longitude Course Direction KTS MPH feet Rate Location/Type
Wed 02:31:27 PM 37.6252 -122.3680 29° Northeast 178 205  Level FlightAware ADS-B
Wed 02:31:38 PM 37.6331 -122.3630 27° Northeast 173 199 500 2,700 Climbing FlightAware ADS-B
Wed 02:31:47 PM 37.6388 -122.3590 29° Northeast 177 204 900 2,308 Climbing FlightAware ADS-B
Wed 02:31:51 PM 37.6414 -122.3560 42° Northeast 180 207 1,000 2,000 Climbing FlightAware ADS-B
Wed 02:31:59 PM 37.6461 -122.3500 45° Northeast 185 213 1,300 1,714 Climbing FlightAware ADS-B
Wed 02:32:19 PM 37.6597 -122.3330 45° Northeast 214 246 1,800 1,667 Climbing FlightAware ADS-B
Wed 02:32:35 PM 37.6709 -122.3180 47° Northeast 232 267 2,300 2,250 Climbing FlightAware ADS-B
Wed 02:32:43 PM 37.6767 -122.3100 48° Northeast 235 270 2,700 2,538 Climbing FlightAware ADS-B
Wed 02:33:01 PM 37.6905 -122.2910 47° Northeast 248 285 3,400 2,364 Climbing FlightAware ADS-B
Wed 02:33:16 PM 37.7028 -122.2740 48° Northeast 262 302 4,000 2,667 Climbing FlightAware ADS-B
Wed 02:33:37 PM 37.7211 -122.2500 46° Northeast 274 315 5,000 2,757 Climbing FlightAware ADS-B
Wed 02:33:53 PM 37.7357 -122.2310 46° Northeast 278 320 5,700 2,824 Climbing FlightAware ADS-B
Wed 02:34:11 PM 37.7526 -122.2100 44° Northeast 286 329 6,600 2,909 Climbing FlightAware ADS-B
Wed 02:34:26 PM 37.7680 -122.1930 41° Northeast 291 335 7,300 2,769 Climbing FlightAware ADS-B
Wed 02:34:50 PM 37.7935 -122.1680 38° Northeast 298 343 8,400 2,923 Climbing FlightAware ADS-B
Wed 02:35:05 PM 37.8111 -122.1520 36° Northeast 305 351 9,200 3,067 Climbing FlightAware ADS-B
Wed 02:35:35 PM 37.8452 -122.1200 37° Northeast 310 357 10,700 2,164 Climbing FlightAware ADS-B
Wed 02:36:06 PM 37.8822 -122.0850 37° Northeast 339 390 11,400 1,475 Climbing FlightAware ADS-B
Wed 02:36:36 PM 37.9224 -122.0460 37° Northeast 365 420 12,200 1,770 Climbing FlightAware ADS-B
Wed 02:37:07 PM 37.9654 -122.0060 36° Northeast 386 444 13,200 1,839 Climbing FlightAware ADS-B
Wed 02:37:38 PM 38.0109 -121.9630 37° Northeast 402 463 14,100 1,875 Climbing FlightAware ADS-B
Wed 02:38:11 PM 38.0610 -121.9160 36° Northeast 420 483 15,200 2,174 Climbing FlightAware ADS-B
Wed 02:38:47 PM 38.1170 -121.8620 37° Northeast 428 493 16,600 2,057 Climbing FlightAware ADS-B
Wed 02:39:21 PM 38.1720 -121.8110 36° Northeast 441 507 17,600 1,917 Climbing FlightAware ADS-B
Wed 02:39:59 PM 38.2360 -121.7500 37° Northeast 454 522 18,900 1,135 Climbing FlightAware ADS-B
Wed 02:40:35 PM 38.2970 -121.6920 37° Northeast 465 535 19,000 140 Climbing FlightAware ADS-B
Wed 02:40:42 PM 38.3099 -121.6790 38° Northeast 467 537 19,000  Level FlightAware ADS-B
Wed 02:41:41 PM 38.4110 -121.5820 37° Northeast 461 531 19,000  Level FlightAware ADS-B
Wed 02:42:17 PM 38.4640 -121.5150 45° Northeast 462 532 19,000  Level FlightAware ADS-B
Wed 02:42:27 PM 38.4791 -121.4920 50° Northeast 461 531 19,000 943 Level FlightAware ADS-B
Wed 02:43:27 PM 38.5550 -121.3610 53° Northeast 467 537 20,100 1,375 Climbing FlightAware ADS-B
Wed 02:44:03 PM 38.6020 -121.2810 53° Northeast 474 545 21,200 2,417 Climbing FlightAware ADS-B
Wed 02:44:39 PM 38.6480 -121.2000 54° Northeast 464 534 23,000 2,294 Climbing FlightAware ADS-B
Wed 02:45:11 PM 38.6870 -121.1330 53° Northeast 472 543 23,800 1,652 Climbing FlightAware ADS-B
Wed 02:45:48 PM 38.7370 -121.0470 53° Northeast 479 551 24,900 1,726 Climbing FlightAware ADS-B
Wed 02:46:24 PM 38.7850 -120.9630 54° Northeast 486 559 25,900 1,273 Climbing FlightAware ADS-B
Wed 02:46:54 PM 38.8260 -120.8920 53° Northeast 501 577 26,300 783 Climbing FlightAware ADS-B
Wed 02:47:33 PM 38.8810 -120.7980 53° Northeast 519 597 26,800 960 Climbing FlightAware ADS-B
Wed 02:48:09 PM 38.9300 -120.7120 54° Northeast 528 608 27,500 1,147 Climbing FlightAware ADS-B
Wed 02:48:41 PM 38.9790 -120.6290 53° Northeast 534 615 28,100 1,437 Climbing FlightAware ADS-B
Wed 02:49:20 PM 39.0370 -120.5280 54° Northeast 534 615 29,200 1,840 Climbing FlightAware ADS-B
Wed 02:49:56 PM 39.0900 -120.4340 54° Northeast 529 609 30,400 1,676 Climbing FlightAware ADS-B
Wed 02:50:28 PM 39.1370 -120.3540 53° Northeast 530 610 31,100 1,500 Climbing FlightAware ADS-B
Wed 02:51:04 PM 39.1890 -120.2620 54° Northeast 525 604 32,100 1,500 Climbing FlightAware ADS-B
Wed 02:51:40 PM 39.2400 -120.1730 53° Northeast 528 608 32,900 1,364 Climbing FlightAware ADS-B
Wed 02:52:10 PM 39.2840 -120.0950 54° Northeast 528 608 33,600 1,343 Climbing FlightAware ADS-B
Wed 02:52:47 PM 39.3360 -120.0040 54° Northeast 527 606 34,400 1,120 Climbing FlightAware ADS-B
Wed 02:53:25 PM 39.3910 -119.9060 54° Northeast 529 609 35,000 514 Climbing FlightAware ADS-B
Wed 02:53:57 PM 39.4370 -119.8240 54° Northeast 526 605 35,000  Level FlightAware ADS-B
Wed 02:54:33 PM 39.4870 -119.7350 54° Northeast 525 604 35,000  Level FlightAware ADS-B
Wed 02:55:05 PM 39.5340 -119.6520 54° Northeast 529 609 35,000 176 Level FlightAware ADS-B
Wed 02:55:41 PM 39.5860 -119.5580 54° Northeast 530 610 35,200 750 Climbing FlightAware ADS-B
Wed 02:56:17 PM 39.6370 -119.4670 54° Northeast 528 608 35,900 1,200 Climbing FlightAware ADS-B
Wed 02:56:51 PM 39.6860 -119.3780 54° Northeast 525 604 36,600 892 Climbing FlightAware ADS-B
Wed 02:57:31 PM 39.7420 -119.2770 54° Northeast 528 608 37,000 338 Climbing FlightAware ADS-B
Wed 02:58:02 PM 39.7850 -119.1990 54° Northeast 528 608 37,000  Level FlightAware ADS-B
Wed 02:58:39 PM 39.8390 -119.1010 54° Northeast 528 608 37,000  Level FlightAware ADS-B
Wed 02:59:11 PM 39.8850 -119.0180 54° Northeast 529 609 37,000  Level FlightAware ADS-B
Wed 02:59:51 PM 39.9410 -118.9160 54° Northeast 528 608 37,000  Level FlightAware ADS-B
Wed 03:00:22 PM 39.9860 -118.8340 54° Northeast 528 608 37,000  Level FlightAware ADS-B
Wed 03:01:00 PM 40.0380 -118.7380 55° Northeast 528 608 37,000  Level FlightAware ADS-B
Wed 03:01:24 PM 40.0710 -118.6770 55° Northeast 527 606 37,000  Level FlightAware ADS-B
Wed 03:02:02 PM 40.1220 -118.5730 57° Northeast 522 601 37,000  Level FlightAware ADS-B
Wed 03:02:36 PM 40.1540 -118.4750 67° East 515 593 37,000  Level FlightAware ADS-B
Wed 03:03:12 PM 40.1820 -118.3720 70° East 515 593 37,000  Level FlightAware ADS-B
Wed 03:03:44 PM 40.2090 -118.2740 70° East 516 594 37,000  Level FlightAware ADS-B
Wed 03:04:14 PM 40.2310 -118.1920 71° East 517 595 37,000  Level FlightAware ADS-B
Wed 03:05:04 PM 40.2720 -118.0420 70° East 518 596 37,000  Level FlightAware ADS-B
Wed 03:05:46 PM 40.3020 -117.9350 70° East 518 596 37,000  Level FlightAware ADS-B
Wed 03:06:20 PM 40.3250 -117.8490 71° East 518 596 37,000  Level FlightAware ADS-B
Wed 03:06:56 PM 40.3500 -117.7590 70° East 518 596 37,000  Level FlightAware ADS-B
Wed 03:07:33 PM 40.3760 -117.6660 70° East 518 596 37,000  Level FlightAware ADS-B
Wed 03:08:10 PM 40.4020 -117.5730 70° East 518 596 37,000  Level FlightAware ADS-B
Wed 03:08:46 PM 40.4270 -117.4820 70° East 518 596 37,000  Level FlightAware ADS-B
Wed 03:09:22 PM 40.4520 -117.3920 70° East 518 596 37,000  Level FlightAware ADS-B
Wed 03:09:58 PM 40.4770 -117.3010 70° East 518 596 37,000  Level FlightAware ADS-B
Wed 03:10:34 PM 40.5020 -117.2110 70° East 518 596 37,000  Level FlightAware ADS-B
Wed 03:11:28 PM 40.5400 -117.0750 70° East 518 596 37,000  Level FlightAware ADS-B
Wed 03:12:16 PM 40.5730 -116.9540 70° East 518 596 37,000  Level FlightAware ADS-B
Wed 03:12:53 PM 40.5990 -116.8600 70° East 518 596 37,000  Level FlightAware ADS-B
Wed 03:13:30 PM 40.6250 -116.7670 70° East 518 596 37,000  Level FlightAware ADS-B
Wed 03:14:07 PM 40.6510 -116.6740 70° East 518 596 37,000  Level FlightAware ADS-B
Wed 03:14:43 PM 40.6760 -116.5830 70° East 518 596 37,000  Level FlightAware ADS-B
Wed 03:15:36 PM 40.7742 -116.1620 73° East 521 600 37,000  Level FlightAware ADS-B
Wed 03:16:16 PM 40.8061 -116.0420 71° East 524 603 37,000  Level FlightAware ADS-B
Wed 03:16:52 PM 40.8348 -115.9330 71° East 524 603 37,000  Level FlightAware ADS-B
Wed 03:17:22 PM 40.8590 -115.8410 71° East 524 603 37,000  Level FlightAware ADS-B
Wed 03:20:59 PM 41.0291 -115.1850 71° East 528 608 37,000  Level FlightAware ADS-B
Wed 03:21:30 PM 41.0537 -115.0880 71° East 528 608 37,000  Level FlightAware ADS-B
Wed 03:22:09 PM 41.0830 -114.9720 71° East 528 608 37,000  Level FlightAware ADS-B
Wed 03:22:27 PM 41.0979 -114.9140 71° East 528 608 37,000  Level FlightAware ADS-B
Wed 03:22:59 PM 41.1227 -114.8160 71° East 528 608 37,000  Level FlightAware ADS-B
Wed 03:23:38 PM 41.1523 -114.6980 72° East 529 609 37,000  Level FlightAware ADS-B
Wed 03:24:13 PM 41.1789 -114.5910 72° East 528 608 37,000  Level FlightAware ADS-B
Wed 03:24:44 PM 41.2028 -114.4950 72° East 528 608 37,000  Level FlightAware ADS-B
Wed 03:25:14 PM 41.2261 -114.4010 72° East 530 610 37,000  Level FlightAware ADS-B
Wed 03:25:44 PM 41.2489 -114.3080 72° East 529 609 37,000  Level FlightAware ADS-B
Wed 03:27:02 PM 41.3078 -114.0680 72° East 530 610 37,000  Level FlightAware ADS-B
Wed 03:27:32 PM 41.3304 -113.9750 72° East 531 611 37,000  Level FlightAware ADS-B
Wed 03:27:52 PM 41.3450 -113.9150 72° East 530 610 37,000  Level FlightAware ADS-B
Wed 03:28:24 PM 41.3651 -113.8140 75° East 526 605 37,000  Level FlightAware ADS-B
Wed 03:28:46 PM 41.3755 -113.7450 79° East 525 604 37,000  Level FlightAware ADS-B
Wed 03:29:16 PM 41.3882 -113.6490 80° East 525 604 37,000  Level FlightAware ADS-B
Wed 03:29:46 PM 41.4004 -113.5530 80° East 525 604 37,000  Level FlightAware ADS-B
Wed 03:30:17 PM 41.4125 -113.4570 80° East 525 604 37,000  Level FlightAware ADS-B
Wed 03:30:47 PM 41.4246 -113.3600 81° East 525 604 37,000  Level FlightAware ADS-B
Wed 03:31:18 PM 41.4371 -113.2600 81° East 524 603 37,000  Level FlightAware ADS-B
Wed 03:31:51 PM 41.4500 -113.1560 81° East 524 603 37,000  Level FlightAware ADS-B
Wed 03:32:23 PM 41.4625 -113.0550 81° East 523 602 37,000  Level FlightAware ADS-B
Wed 03:32:56 PM 41.4751 -112.9520 81° East 525 604 37,000  Level FlightAware ADS-B
Wed 03:33:31 PM 41.4888 -112.8400 81° East 525 604 37,000  Level FlightAware ADS-B
Wed 03:34:06 PM 41.5023 -112.7270 81° East 525 604 37,000  Level FlightAware ADS-B
Wed 03:34:37 PM 41.5143 -112.6270 81° East 524 603 37,000  Level FlightAware ADS-B
Wed 03:35:07 PM 41.5257 -112.5310 81° East 525 604 37,000  Level FlightAware ADS-B
Wed 03:35:38 PM 41.5370 -112.4340 81° East 527 606 37,000  Level FlightAware ADS-B
Wed 03:36:11 PM 41.5480 -112.3290 82° East 526 605 37,000  Level FlightAware ADS-B
Wed 03:36:46 PM 41.5598 -112.2140 82° East 527 606 37,000  Level FlightAware ADS-B
Wed 03:37:21 PM 41.5713 -112.1020 82° East 528 608 37,000  Level FlightAware ADS-B
Wed 03:37:52 PM 41.5816 -112.0020 82° East 529 609 37,000  Level FlightAware ADS-B
Wed 03:38:23 PM 41.5918 -111.9020 82° East 529 609 37,000  Level FlightAware ADS-B
Wed 03:38:56 PM 41.6026 -111.7960 82° East 529 609 37,000  Level FlightAware ADS-B
Wed 03:39:30 PM 41.6134 -111.6880 82° East 529 609 37,000  Level FlightAware ADS-B
Wed 03:40:01 PM 41.6236 -111.5860 82° East 529 609 37,000  Level FlightAware ADS-B
Wed 03:40:31 PM 41.6332 -111.4880 83° East 529 609 37,000  Level FlightAware ADS-B
Wed 03:41:04 PM 41.6434 -111.3840 82° East 529 609 37,000  Level FlightAware ADS-B
Wed 03:41:34 PM 41.6528 -111.2870 83° East 529 609 37,000  Level FlightAware ADS-B
Wed 03:42:04 PM 41.6623 -111.1880 83° East 529 609 37,000  Level FlightAware ADS-B
Wed 03:42:35 PM 41.6716 -111.0900 83° East 529 609 37,000  Level FlightAware ADS-B
Wed 03:43:05 PM 41.6809 -110.9910 83° East 530 610 37,000  Level FlightAware ADS-B
Wed 03:43:36 PM 41.6902 -110.8910 83° East 531 611 37,000  Level FlightAware ADS-B
Wed 03:44:34 PM 41.7074 -110.7030 83° East 532 612 37,000  Level FlightAware ADS-B
Wed 03:46:02 PM 41.7303 -110.4456 83° East 531 611 37,000  Level Salt Lake Center
Wed 03:47:04 PM 41.7500 -110.2261 83° East 532 612 37,000  Level Salt Lake Center
Wed 03:48:06 PM 41.7656 -110.0369 84° East 533 613 37,000  Level Salt Lake Center
Wed 03:49:08 PM 41.7853 -109.8158 83° East 534 615 37,000  Level Salt Lake Center
Wed 03:50:10 PM 41.8003 -109.6264 84° East 533 613 37,000  Level Salt Lake Center
Wed 03:51:12 PM 41.8164 -109.4372 83° East 533 613 37,000  Level Salt Lake Center
Wed 03:52:14 PM 41.8347 -109.2153 84° East 533 613 37,000  Level Salt Lake Center
Wed 03:53:16 PM 41.8481 -109.0242 85° East 533 613 37,000  Level Salt Lake Center
Wed 03:54:18 PM 41.8639 -108.8033 84° East 531 611 37,000  Level Salt Lake Center
Wed 03:55:20 PM 41.8783 -108.6139 84° East 531 611 37,000  Level Salt Lake Center
Wed 03:56:22 PM 41.9108 -108.3986 78° East 529 609 37,000  Level Salt Lake Center
Wed 03:57:24 PM 41.9372 -108.2117 79° East 531 611 37,000  Level Salt Lake Center
Wed 03:58:26 PM 41.9525 -108.0222 84° East 535 616 37,000  Level Salt Lake Center
Wed 03:59:21 PM 41.9667 -107.8342 84° East 526 605 37,000  Level Denver Center
Wed 04:00:24 PM 41.9758 -107.6133 87° East 530 610 37,000  Level Denver Center
Wed 04:01:26 PM 41.9814 -107.4250 88° East 528 608 37,000  Level Denver Center
Wed 04:07:10 PM 41.9910 -106.2570 88° East 536 617 37,000  Level FlightAware ADS-B
Wed 04:07:47 PM 41.9920 -106.1390 89° East 537 618 37,000  Level FlightAware ADS-B
Wed 04:08:10 PM 41.9920 -106.0570 90° East 539 620 37,000  Level FlightAware ADS-B
Wed 04:08:55 PM 41.9920 -105.9070 90° East 539 620 37,000  Level FlightAware ADS-B
Wed 04:09:28 PM 41.9950 -105.7980 88° East 540 621 37,000  Level FlightAware ADS-B
Wed 04:10:01 PM 41.9970 -105.7000 88° East 540 621 37,000  Level FlightAware ADS-B
Wed 04:10:45 PM 42.0000 -105.5560 88° East 540 621 37,000  Level FlightAware ADS-B
Wed 04:11:23 PM 42.0020 -105.4470 89° East 540 621 37,000  Level FlightAware ADS-B
Wed 04:12:04 PM 42.0210 -105.2730 82° East 542 624 37,000  Level FlightAware ADS-B
Wed 04:12:32 PM 42.0270 -105.1840 85° East 542 624 37,000  Level FlightAware ADS-B
Wed 04:13:14 PM 42.0439 -105.0410 81° East 540 621 37,000  Level FlightAware ADS-B
Wed 04:13:48 PM 42.0574 -104.9300 81° East 541 623 37,000  Level FlightAware ADS-B
Wed 04:14:24 PM 42.0702 -104.8100 82° East 541 623 37,000  Level FlightAware ADS-B
Wed 04:14:54 PM 42.0802 -104.7080 82° East 543 625 37,000  Level FlightAware ADS-B
Wed 04:15:24 PM 42.0898 -104.6080 83° East 542 624 37,000  Level FlightAware ADS-B
Wed 04:15:55 PM 42.0995 -104.5030 83° East 542 624 37,000  Level FlightAware ADS-B
Wed 04:16:26 PM 42.1086 -104.4010 83° East 543 625 37,000  Level FlightAware ADS-B
Wed 04:16:56 PM 42.1177 -104.2990 83° East 543 625 37,000  Level FlightAware ADS-B
Wed 04:17:31 PM 42.1278 -104.1820 83° East 543 625 37,000  Level FlightAware ADS-B
Wed 04:18:02 PM 42.1367 -104.0780 83° East 543 625 37,000  Level FlightAware ADS-B
Wed 04:18:32 PM 42.1453 -103.9770 83° East 542 624 37,000  Level FlightAware ADS-B
Wed 04:19:04 PM 42.1541 -103.8720 84° East 541 623 37,000  Level FlightAware ADS-B
Wed 04:19:35 PM 42.1627 -103.7690 84° East 541 623 37,000  Level FlightAware ADS-B
Wed 04:20:06 PM 42.1712 -103.6660 84° East 541 623 37,000  Level FlightAware ADS-B
Wed 04:20:36 PM 42.1794 -103.5650 84° East 542 624 37,000  Level FlightAware ADS-B
Wed 04:21:13 PM 42.1895 -103.4420 84° East 541 623 37,000  Level FlightAware ADS-B
Wed 04:21:43 PM 42.1975 -103.3400 84° East 541 623 37,000  Level FlightAware ADS-B
Wed 04:22:14 PM 42.2057 -103.2370 84° East 542 624 37,000  Level FlightAware ADS-B
Wed 04:22:44 PM 42.2137 -103.1340 84° East 542 624 37,000  Level FlightAware ADS-B
Wed 04:23:14 PM 42.2214 -103.0330 84° East 542 624 37,000  Level FlightAware ADS-B
Wed 04:23:45 PM 42.2292 -102.9310 84° East 542 624 37,000  Level FlightAware ADS-B
Wed 04:24:46 PM 42.2446 -102.7250 84° East 542 624 37,000  Level FlightAware ADS-B
Wed 04:25:42 PM 42.2582 -102.5390 84° East 542 624 37,000  Level FlightAware ADS-B
Wed 04:26:12 PM 42.2655 -102.4380 84° East 542 624 37,000  Level FlightAware ADS-B
Wed 04:26:43 PM 42.2728 -102.3350 84° East 542 624 37,000  Level FlightAware ADS-B
Wed 04:27:15 PM 42.2803 -102.2270 85° East 542 624 37,000  Level FlightAware ADS-B
Wed 04:28:19 PM 42.2939 -102.0442 85° East 543 625 37,000  Level Denver Center
Wed 04:29:21 PM 42.3083 -101.8264 85° East 541 623 37,000  Level Denver Center
Wed 04:30:23 PM 42.3225 -101.6022 85° East 538 619 37,000  Level Denver Center
Wed 04:31:25 PM 42.3350 -101.4086 85° East 540 621 37,000  Level Denver Center
Wed 04:32:28 PM 42.3464 -101.2164 85° East 536 617 37,000  Level Denver Center
Wed 04:33:30 PM 42.3589 -100.9931 86° East 533 613 37,000  Level Denver Center
Wed 04:34:32 PM 42.3700 -100.8019 85° East 533 613 37,000  Level Denver Center
Wed 04:35:33 PM 42.3819 -100.5831 86° East 530 610 37,000  Level Minneapolis Center
Wed 04:36:35 PM 42.3922 -100.3817 86° East 534 615 37,000  Level Minneapolis Center
Wed 04:37:38 PM 42.4036 -100.1811 86° East 534 615 37,000  Level Minneapolis Center
Wed 04:38:40 PM 42.4133 -99.9803 86° East 533 613 37,000  Level Minneapolis Center
Wed 04:39:42 PM 42.4231 -99.7817 86° East 530 610 37,000  Level Minneapolis Center
Wed 04:40:44 PM 42.4350 -99.5400 86° East 528 608 37,000  Level Denver Center
Wed 04:41:46 PM 42.4433 -99.3397 87° East 530 610 37,000  Level Minneapolis Center
Wed 04:42:48 PM 42.4531 -99.1381 86° East 534 615 37,000  Level Minneapolis Center
Wed 04:43:50 PM 42.4611 -98.9361 87° East 535 616 37,000  Level Minneapolis Center
Wed 04:44:52 PM 42.4697 -98.7361 87° East 532 612 37,000  Level Minneapolis Center
Wed 04:45:54 PM 42.4806 -98.5358 86° East 533 613 37,000  Level Minneapolis Center
Wed 04:51:30 PM 42.5300 -97.3780 86° East 536 617 37,000  Level FlightAware ADS-B
Wed 04:52:21 PM 42.5370 -97.2240 86° East 536 617 37,000  Level FlightAware ADS-B
Wed 04:52:56 PM 42.5410 -97.0900 88° East 537 618 37,000  Level FlightAware ADS-B
Wed 04:53:37 PM 42.5460 -96.9680 87° East 538 619 37,000  Level FlightAware ADS-B
Wed 04:54:07 PM 42.5500 -96.8520 87° East 538 619 37,000  Level FlightAware ADS-B
Wed 04:54:40 PM 42.5540 -96.7420 87° East 538 619 37,000  Level FlightAware ADS-B
Wed 04:55:20 PM 42.5580 -96.6050 88° East 538 619 37,000  Level FlightAware ADS-B
Wed 04:55:56 PM 42.5620 -96.4880 87° East 538 619 37,000  Level FlightAware ADS-B
Wed 04:56:32 PM 42.5660 -96.3640 87° East 538 619 37,000  Level FlightAware ADS-B
Wed 04:57:08 PM 42.5700 -96.2400 87° East 539 620 37,000  Level FlightAware ADS-B
Wed 04:57:40 PM 42.5730 -96.1390 88° East 539 620 37,000  Level FlightAware ADS-B
Wed 04:58:16 PM 42.5760 -96.0190 88° East 539 620 37,000  Level FlightAware ADS-B
Wed 04:58:45 PM 42.5790 -95.9210 88° East 539 620 37,000  Level FlightAware ADS-B
Wed 04:59:26 PM 42.5830 -95.7740 88° East 539 620 37,000  Level FlightAware ADS-B
Wed 05:00:00 PM 42.5860 -95.6610 88° East 539 620 37,000  Level FlightAware ADS-B
Wed 05:00:36 PM 42.5880 -95.5410 89° East 538 619 37,000  Level FlightAware ADS-B
Wed 05:01:07 PM 42.5910 -95.4360 88° East 538 619 37,000  Level FlightAware ADS-B
Wed 05:01:43 PM 42.5930 -95.3170 89° East 538 619 37,000  Level FlightAware ADS-B
Wed 05:02:21 PM 42.5960 -95.1870 88° East 538 619 37,000  Level FlightAware ADS-B
Wed 05:02:55 PM 42.5990 -95.0700 88° East 539 620 37,000  Level FlightAware ADS-B
Wed 05:03:33 PM 42.6010 -94.9450 89° East 539 620 37,000  Level FlightAware ADS-B
Wed 05:04:05 PM 42.6030 -94.8340 89° East 538 619 37,000  Level FlightAware ADS-B
Wed 05:04:41 PM 42.6050 -94.7150 89° East 539 620 37,000  Level FlightAware ADS-B
Wed 05:05:23 PM 42.6070 -94.5740 89° East 538 619 37,000  Level FlightAware ADS-B
Wed 05:05:59 PM 42.6090 -94.4510 89° East 538 619 37,000  Level FlightAware ADS-B
Wed 05:06:33 PM 42.6110 -94.3390 89° East 538 619 37,000  Level FlightAware ADS-B
Wed 05:07:09 PM 42.6120 -94.2180 89° East 538 619 37,000  Level FlightAware ADS-B
Wed 05:07:41 PM 42.6130 -94.1080 89° East 538 619 37,000  Level FlightAware ADS-B
Wed 05:08:17 PM 42.6140 -93.9890 89° East 538 619 37,000  Level FlightAware ADS-B
Wed 05:08:53 PM 42.6140 -93.8670 90° East 538 619 37,000  Level FlightAware ADS-B
Wed 05:09:25 PM 42.6150 -93.7630 89° East 538 619 37,000  Level FlightAware ADS-B
Wed 05:10:01 PM 42.6160 -93.6390 89° East 538 619 37,000  Level FlightAware ADS-B
Wed 05:10:36 PM 42.6160 -93.5210 90° East 538 619 37,000  Level FlightAware ADS-B
Wed 05:11:19 PM 42.6160 -93.3800 90° East 538 619 37,000  Level FlightAware ADS-B
Wed 05:11:55 PM 42.6170 -93.2530 89° East 539 620 37,000  Level FlightAware ADS-B
Wed 05:12:27 PM 42.6170 -93.1470 90° East 539 620 37,000  Level FlightAware ADS-B
Wed 05:12:56 PM 42.6170 -93.0500 90° East 539 620 37,000  Level FlightAware ADS-B
Wed 05:13:39 PM 42.6160 -92.9040 90° East 540 621 37,000  Level FlightAware ADS-B
Wed 05:14:14 PM 42.6160 -92.7870 90° East 541 623 37,000  Level FlightAware ADS-B
Wed 05:14:51 PM 42.6160 -92.6580 90° East 542 624 37,000  Level FlightAware ADS-B
Wed 05:15:27 PM 42.6150 -92.5360 91° East 541 623 37,000  Level FlightAware ADS-B
Wed 05:15:59 PM 42.6140 -92.4290 91° East 541 623 37,000  Level FlightAware ADS-B
Wed 05:16:35 PM 42.6130 -92.3100 91° East 541 623 37,000  Level FlightAware ADS-B
Wed 05:17:14 PM 42.6120 -92.1790 91° East 540 621 37,000  Level FlightAware ADS-B
Wed 05:17:50 PM 42.6110 -92.0590 91° East 540 621 37,000  Level FlightAware ADS-B
Wed 05:18:26 PM 42.6100 -91.9320 91° East 538 619 37,000  Level FlightAware ADS-B
Wed 05:19:02 PM 42.6090 -91.8100 91° East 537 618 37,000  Level FlightAware ADS-B
Wed 05:19:36 PM 42.6070 -91.6950 91° East 536 617 37,000  Level FlightAware ADS-B
Wed 05:20:12 PM 42.6060 -91.5750 91° East 535 616 37,000  Level FlightAware ADS-B
Wed 05:20:42 PM 42.6040 -91.4820 92° East 535 616 37,000  Level FlightAware ADS-B
Wed 05:21:24 PM 42.6020 -91.3340 91° East 534 615 37,000  Level FlightAware ADS-B
Wed 05:21:56 PM 42.6000 -91.2280 91° East 533 613 37,000  Level FlightAware ADS-B
Wed 05:22:32 PM 42.5980 -91.1080 91° East 532 612 37,000  Level FlightAware ADS-B
Wed 05:23:04 PM 42.5960 -91.0030 91° East 532 612 37,000  Level FlightAware ADS-B
Wed 05:23:40 PM 42.5940 -90.8890 91° East 532 612 37,000  Level FlightAware ADS-B
Wed 05:24:15 PM 42.5920 -90.7760 91° East 533 613 37,000  Level FlightAware ADS-B
Wed 05:24:51 PM 42.5890 -90.6490 92° East 533 613 37,000  Level FlightAware ADS-B
Wed 05:25:28 PM 42.5860 -90.5300 92° East 532 612 37,000  Level FlightAware ADS-B
Wed 05:26:02 PM 42.5830 -90.4100 92° East 533 613 37,000  Level FlightAware ADS-B
Wed 05:26:38 PM 42.5800 -90.2900 92° East 533 613 37,000  Level FlightAware ADS-B
Wed 05:27:14 PM 42.5770 -90.1680 92° East 533 613 37,000  Level FlightAware ADS-B
Wed 05:27:46 PM 42.5750 -90.0630 91° East 533 613 37,000  Level FlightAware ADS-B
Wed 05:28:23 PM 42.5710 -89.9430 93° East 533 613 37,000  Level FlightAware ADS-B
Wed 05:28:58 PM 42.5680 -89.8220 92° East 533 613 37,000  Level FlightAware ADS-B
Wed 05:29:32 PM 42.5640 -89.7090 93° East 533 613 37,000  Level FlightAware ADS-B
Wed 05:30:08 PM 42.5610 -89.5890 92° East 532 612 37,000  Level FlightAware ADS-B
Wed 05:30:40 PM 42.5570 -89.4820 93° East 532 612 37,000  Level FlightAware ADS-B
Wed 05:31:18 PM 42.5530 -89.3570 92° East 532 612 37,000  Level FlightAware ADS-B
Wed 05:31:54 PM 42.5490 -89.2390 93° East 531 611 37,000  Level FlightAware ADS-B
Wed 05:32:26 PM 42.5450 -89.1300 93° East 532 612 37,000  Level FlightAware ADS-B
Wed 05:33:02 PM 42.5410 -89.0110 93° East 531 611 37,000  Level FlightAware ADS-B
Wed 05:33:38 PM 42.5370 -88.8890 93° East 530 610 37,000  Level FlightAware ADS-B
Wed 05:34:10 PM 42.5330 -88.7860 93° East 529 609 37,000  Level FlightAware ADS-B
Wed 05:34:42 PM 42.5290 -88.6830 93° East 528 608 37,000  Level FlightAware ADS-B
Wed 05:35:22 PM 42.5240 -88.5500 93° East 528 608 37,000  Level FlightAware ADS-B
Wed 05:35:58 PM 42.5190 -88.4300 93° East 527 606 37,000  Level FlightAware ADS-B
Wed 05:36:33 PM 42.5140 -88.3150 93° East 527 606 37,000  Level FlightAware ADS-B
Wed 05:37:08 PM 42.5090 -88.2000 93° East 526 605 37,000  Level FlightAware ADS-B
Wed 05:37:40 PM 42.5040 -88.0970 94° East 526 605 37,000  Level FlightAware ADS-B
Wed 05:38:16 PM 42.5010 -87.9770 92° East 525 604 37,000  Level FlightAware ADS-B
Wed 05:38:50 PM 42.5000 -87.8640 91° East 525 604 37,000  Level FlightAware ADS-B
Wed 05:39:26 PM 42.5000 -87.7490 90° East 524 603 37,000  Level FlightAware ADS-B
Wed 05:39:58 PM 42.4990 -87.6420 91° East 524 603 37,000  Level FlightAware ADS-B
Wed 05:41:05 PM 42.4990 -87.4200 90° East 524 603 37,000  Level FlightAware ADS-B
Wed 05:41:39 PM 42.4980 -87.3110 91° East 523 602 37,000  Level FlightAware ADS-B
Wed 05:42:13 PM 42.4980 -87.2040 90° East 524 603 37,000  Level FlightAware ADS-B
Wed 05:43:16 PM 42.4970 -87.0260 90° East 524 603 37,000  Level FlightAware ADS-B
Wed 05:43:58 PM 42.4950 -86.8600 91° East 522 601 37,000  Level FlightAware ADS-B
Wed 05:44:31 PM 42.4940 -86.7500 91° East 522 601 37,000  Level FlightAware ADS-B
Wed 05:45:08 PM 42.4920 -86.6270 91° East 522 601 37,000  Level FlightAware ADS-B
Wed 05:45:40 PM 42.4910 -86.5230 91° East 520 598 37,000  Level FlightAware ADS-B
Wed 05:46:13 PM 42.4900 -86.4180 91° East 520 598 37,000  Level FlightAware ADS-B
Wed 05:46:52 PM 42.4880 -86.2920 91° East 518 596 37,000  Level FlightAware ADS-B
Wed 05:47:26 PM 42.4860 -86.1790 91° East 516 594 37,000  Level FlightAware ADS-B
Wed 05:48:01 PM 42.4840 -86.0690 91° East 515 593 37,000  Level FlightAware ADS-B
Wed 05:48:36 PM 42.4820 -85.9560 91° East 513 590 37,000  Level FlightAware ADS-B
Wed 05:49:10 PM 42.4800 -85.8460 91° East 512 589 37,000  Level FlightAware ADS-B
Wed 05:49:44 PM 42.4780 -85.7380 91° East 511 588 37,000  Level FlightAware ADS-B
Wed 05:50:22 PM 42.4760 -85.6170 91° East 510 587 37,000  Level FlightAware ADS-B
Wed 05:50:58 PM 42.4740 -85.5040 91° East 509 586 37,000  Level FlightAware ADS-B
Wed 05:51:30 PM 42.4710 -85.4010 92° East 508 585 37,000  Level FlightAware ADS-B
Wed 05:52:05 PM 42.4690 -85.2930 91° East 508 585 37,000  Level FlightAware ADS-B
Wed 05:52:42 PM 42.4660 -85.1720 92° East 508 585 37,000  Level FlightAware ADS-B
Wed 05:53:15 PM 42.4640 -85.0750 92° East 508 585 37,000  Level FlightAware ADS-B
Wed 05:53:54 PM 42.4600 -84.9480 92° East 508 585 37,000  Level FlightAware ADS-B
Wed 05:54:26 PM 42.4570 -84.8430 92° East 507 583 37,000  Level FlightAware ADS-B
Wed 05:55:00 PM 42.4550 -84.7430 92° East 507 583 37,000  Level FlightAware ADS-B
Wed 05:55:40 PM 42.4510 -84.6110 92° East 506 582 37,000  Level FlightAware ADS-B
Wed 05:56:12 PM 42.4480 -84.5060 92° East 505 581 37,000  Level FlightAware ADS-B
Wed 05:56:44 PM 42.4440 -84.4120 93° East 504 580 37,000  Level FlightAware ADS-B
Wed 05:57:21 PM 42.4360 -84.2940 95° East 504 580 37,000  Level FlightAware ADS-B
Wed 05:57:56 PM 42.4290 -84.1840 95° East 503 579 37,000  Level FlightAware ADS-B
Wed 05:58:32 PM 42.4220 -84.0680 95° East 504 580 37,000  Level FlightAware ADS-B
Wed 05:59:04 PM 42.4160 -83.9690 95° East 504 580 37,000  Level FlightAware ADS-B
Wed 05:59:40 PM 42.4080 -83.8540 95° East 503 579 37,000  Level FlightAware ADS-B
Wed 05:59:52 PM 42.4060 -83.8180 94° East 503 579 37,000  Level FlightAware ADS-B
Wed 06:03:31 PM 42.3750 -83.2350 94° East 503 579 37,000  Level FlightAware ADS-B
Wed 06:04:12 PM 42.3560 -83.0730 99° East 505 581 37,000  Level FlightAware ADS-B
Wed 06:04:54 PM 42.3450 -82.9180 95° East 506 582 37,000  Level FlightAware ADS-B
Wed 06:05:32 PM 42.3350 -82.7850 96° East 506 582 37,000  Level FlightAware ADS-B
Wed 06:05:56 PM 42.3270 -82.6790 96° East 506 582 37,000  Level FlightAware ADS-B
Wed 06:06:40 PM 42.3190 -82.5690 96° East 506 582 37,000  Level FlightAware ADS-B
Wed 06:07:20 PM 42.3090 -82.4360 96° East 507 583 37,000  Level FlightAware ADS-B
Wed 06:08:01 PM 42.2990 -82.3040 96° East 508 585 37,000  Level FlightAware ADS-B
Wed 06:08:32 PM 42.2920 -82.2140 96° East 508 585 37,000  Level FlightAware ADS-B
Wed 06:09:05 PM 42.2840 -82.1070 96° East 508 585 37,000  Level FlightAware ADS-B
Wed 06:09:47 PM 42.2730 -81.9740 96° East 509 586 37,000  Level FlightAware ADS-B
Wed 06:10:20 PM 42.2640 -81.8700 97° East 508 585 37,000  Level FlightAware ADS-B
Wed 06:10:54 PM 42.2560 -81.7660 96° East 508 585 37,000  Level FlightAware ADS-B
Wed 06:11:31 PM 42.2460 -81.6440 96° East 508 585 37,000  Level FlightAware ADS-B
Wed 06:12:06 PM 42.2370 -81.5400 97° East 506 582 37,000  Level FlightAware ADS-B
Wed 06:12:39 PM 42.2280 -81.4340 97° East 500 575 37,000  Level FlightAware ADS-B
Wed 06:13:12 PM 42.2190 -81.3320 97° East 498 573 37,000  Level FlightAware ADS-B
Wed 06:13:46 PM 42.2110 -81.2290 96° East 495 570 37,000  Level FlightAware ADS-B
Wed 06:14:24 PM 42.2000 -81.1120 97° East 497 572 37,000  Level FlightAware ADS-B
Wed 06:14:58 PM 42.1910 -81.0070 97° East 498 573 37,000  Level FlightAware ADS-B
Wed 06:15:33 PM 42.1810 -80.8960 97° East 499 574 37,000  Level FlightAware ADS-B
Wed 06:16:11 PM 42.1710 -80.7800 97° East 504 580 37,000  Level FlightAware ADS-B
Wed 06:16:41 PM 42.1620 -80.6880 97° East 508 585 37,000  Level FlightAware ADS-B
Wed 06:17:23 PM 42.1500 -80.5570 97° East 507 583 37,000  Level FlightAware ADS-B
Wed 06:17:59 PM 42.1390 -80.4390 97° East 506 582 37,000  Level FlightAware ADS-B
Wed 06:18:35 PM 42.1290 -80.3310 97° East 504 580 37,000  Level FlightAware ADS-B
Wed 06:19:12 PM 42.1180 -80.2160 97° East 500 575 37,000  Level FlightAware ADS-B
Wed 06:19:46 PM 42.1080 -80.1150 98° East 498 573 37,000  Level FlightAware ADS-B
Wed 06:20:21 PM 42.0950 -79.9860 98° East 495 570 37,000  Level FlightAware ADS-B
Wed 06:20:59 PM 42.0840 -79.8720 97° East 490 564 37,000  Level FlightAware ADS-B
Wed 06:21:31 PM 42.0750 -79.7760 97° East 484 557 37,000  Level FlightAware ADS-B
Wed 06:22:07 PM 42.0640 -79.6660 98° East 482 555 37,000  Level FlightAware ADS-B
Wed 06:22:43 PM 42.0530 -79.5630 98° East 478 550 37,000  Level FlightAware ADS-B
Wed 06:23:19 PM 42.0420 -79.4550 98° East 476 548 37,000  Level FlightAware ADS-B
Wed 06:23:51 PM 42.0320 -79.3600 98° East 475 547 37,000  Level FlightAware ADS-B
Wed 06:24:27 PM 42.0210 -79.2560 98° East 472 543 37,000  Level FlightAware ADS-B
Wed 06:25:03 PM 42.0100 -79.1510 98° East 469 540 37,000  Level FlightAware ADS-B
Wed 06:25:39 PM 41.9990 -79.0480 98° East 467 537 37,000  Level FlightAware ADS-B
Wed 06:26:11 PM 41.9890 -78.9560 98° East 465 535 37,000  Level FlightAware ADS-B
Wed 06:26:47 PM 41.9780 -78.8540 98° East 463 533 37,000  Level FlightAware ADS-B
Wed 06:27:23 PM 41.9670 -78.7520 98° East 462 532 37,000  Level FlightAware ADS-B
Wed 06:27:59 PM 41.9560 -78.6480 98° East 462 532 37,000  Level FlightAware ADS-B
Wed 06:28:31 PM 41.9460 -78.5580 98° East 462 532 37,000  Level FlightAware ADS-B
Wed 06:29:07 PM 41.9340 -78.4560 99° East 463 533 37,000  Level FlightAware ADS-B
Wed 06:29:39 PM 41.9240 -78.3660 98° East 464 534 37,000  Level FlightAware ADS-B
Wed 06:30:19 PM 41.9110 -78.2510 99° East 468 539 37,000  Level FlightAware ADS-B
Wed 06:30:51 PM 41.9010 -78.1600 98° East 472 543 37,000  Level FlightAware ADS-B
Wed 06:31:24 PM 41.8900 -78.0670 99° East 474 545 37,000  Level FlightAware ADS-B
Wed 06:32:03 PM 41.8770 -77.9530 99° East 476 548 37,000  Level FlightAware ADS-B
Wed 06:32:39 PM 41.8610 -77.8480 102° East 477 549 37,000  Level FlightAware ADS-B
Wed 06:33:11 PM 41.8410 -77.7580 107° East 476 548 37,000  Level FlightAware ADS-B
Wed 06:33:47 PM 41.8150 -77.6590 109° East 476 548 37,000  Level FlightAware ADS-B
Wed 06:34:23 PM 41.7870 -77.5570 110° East 476 548 37,000  Level FlightAware ADS-B
Wed 06:34:59 PM 41.7610 -77.4580 109° East 476 548 37,000  Level FlightAware ADS-B
Wed 06:35:32 PM 41.7360 -77.3660 110° East 475 547 37,000  Level FlightAware ADS-B
Wed 06:36:06 PM 41.7120 -77.2750 109° East 475 547 37,000  Level FlightAware ADS-B
Wed 06:36:54 PM 41.6810 -77.1580 109° East 476 548 37,000  Level FlightAware ADS-B
Wed 06:37:29 PM 41.6510 -77.0490 110° East 477 549 37,000  Level FlightAware ADS-B
Wed 06:38:04 PM 41.6250 -76.9510 110° East 476 548 37,000  Level FlightAware ADS-B
Wed 06:38:39 PM 41.5990 -76.8570 110° East 474 545 37,000  Level FlightAware ADS-B
Wed 06:39:15 PM 41.5740 -76.7650 110° East 474 545 37,000  Level FlightAware ADS-B
Wed 06:39:36 PM 41.5536 -76.6919 110° East 473 544 37,000  Level FlightAware ADS-B
Wed 06:40:08 PM 41.5301 -76.6064 110° East 472 543 37,000  Level FlightAware ADS-B
Wed 06:40:39 PM 41.5064 -76.5203 110° East 469 540 37,000  Level FlightAware ADS-B
Wed 06:41:11 PM 41.4823 -76.4333 110° East 468 539 37,000  Level FlightAware ADS-B
Wed 06:41:44 PM 41.4582 -76.3464 110° East 466 536 37,000 -95 Level FlightAware ADS-B
Wed 06:42:14 PM 41.4353 -76.2643 110° East 465 535 36,900 -1,200 Descending FlightAware ADS-B
Wed 06:42:49 PM 41.4090 -76.1705 110° East 469 540 35,700 -2,435 Descending FlightAware ADS-B
Wed 06:43:23 PM 41.3834 -76.0796 111° Southeast 477 549 34,100 -3,045 Descending FlightAware ADS-B
Wed 06:43:56 PM 41.3574 -75.9873 111° Southeast 484 557 32,300 -3,188 Descending FlightAware ADS-B
Wed 06:44:27 PM 41.3327 -75.9000 111° Southeast 488 562 30,700 -2,762 Descending FlightAware ADS-B
Wed 06:44:59 PM 41.3079 -75.8127 111° Southeast 483 556 29,400 -2,419 Descending FlightAware ADS-B
Wed 06:45:29 PM 41.2842 -75.7297 111° Southeast 476 548 28,200 -2,400 Descending FlightAware ADS-B
Wed 06:45:54 PM 41.2636 -75.6625 112° Southeast 468 539 27,200 -2,400 Descending FlightAware ADS-B
Wed 06:46:24 PM 41.2378 -75.5836 113° Southeast 462 532 26,000 -2,381 Descending FlightAware ADS-B
Wed 06:46:57 PM 41.2097 -75.4996 114° Southeast 453 521 24,700 -2,381 Descending FlightAware ADS-B
Wed 06:47:27 PM 41.1844 -75.4244 114° Southeast 445 512 23,500 -1,645 Descending FlightAware ADS-B
Wed 06:47:59 PM 41.1580 -75.3463 114° Southeast 437 503 23,000 -484 Descending FlightAware ADS-B
Wed 06:48:29 PM 41.1333 -75.2731 114° Southeast 432 497 23,000  Level FlightAware ADS-B
Wed 06:48:59 PM 41.1087 -75.2003 114° Southeast 432 497 23,000  Level FlightAware ADS-B
Wed 06:49:29 PM 41.0841 -75.1276 114° Southeast 432 497 23,000  Level FlightAware ADS-B
Wed 06:50:04 PM 41.0556 -75.0438 114° Southeast 430 495 23,000  Level FlightAware ADS-B
Wed 06:50:38 PM 41.0283 -74.9640 114° Southeast 429 494 23,000  Level FlightAware ADS-B
Wed 06:51:00 PM 41.0100 -74.9095 114° Southeast 428 493 23,000 -545 Level FlightAware ADS-B
Wed 06:51:22 PM 40.9964 -74.8563 109° East 427 491 22,600 -1,273 Descending FlightAware ADS-B
Wed 06:51:33 PM 40.9917 -74.8281 102° East 426 490 22,300 -1,953 Descending FlightAware ADS-B
Wed 06:52:05 PM 40.9820 -74.7465 99° East 421 484 21,200 -2,095 Descending FlightAware ADS-B
Wed 06:52:36 PM 40.9739 -74.6678 98° East 414 476 20,100 -1,869 Descending FlightAware ADS-B
Wed 06:53:06 PM 40.9660 -74.5923 98° East 410 472 19,300 -1,082 Descending FlightAware ADS-B
Wed 06:53:37 PM 40.9577 -74.5168 98° East 405 466 19,000 -281 Descending FlightAware ADS-B
Wed 06:54:10 PM 40.9487 -74.4357 98° East 408 470 19,000  Level FlightAware ADS-B
Wed 06:54:41 PM 40.9402 -74.3598 98° East 399 459 19,000  Level FlightAware ADS-B
Wed 06:55:12 PM 40.9322 -74.2882 98° East 374 430 19,000  Level FlightAware ADS-B
Wed 06:55:28 PM 40.9280 -74.2535 99° East 354 407 19,000  Level FlightAware ADS-B
Wed 06:55:33 PM 40.9259 -74.2429 105° East 350 403 19,000  Level FlightAware ADS-B
Wed 06:55:37 PM 40.9238 -74.2347 109° East 349 402 19,000  Level FlightAware ADS-B
Wed 06:55:45 PM 40.9183 -74.2197 116° Southeast 346 398 19,000  Level FlightAware ADS-B
Wed 06:55:49 PM 40.9146 -74.2120 122° Southeast 344 396 19,000  Level FlightAware ADS-B
Wed 06:56:01 PM 40.9019 -74.1933 132° Southeast 340 391 19,000  Level FlightAware ADS-B
Wed 06:56:11 PM 40.8893 -74.1814 144° Southeast 339 390 19,000  Level FlightAware ADS-B
Wed 06:56:47 PM 40.8392 -74.1503 155° Southeast 338 389 19,000 -273 Level FlightAware ADS-B
Wed 06:57:17 PM 40.7968 -74.1251 156° South 333 383 18,700 -1,100 Descending FlightAware ADS-B
Wed 06:57:47 PM 40.7541 -74.0995 156° South 331 381 17,900 -1,672 Descending FlightAware ADS-B
Wed 06:58:18 PM 40.7120 -74.0738 155° Southeast 323 372 17,000 -1,839 Descending FlightAware ADS-B
Wed 06:58:49 PM 40.6705 -74.0483 155° Southeast 320 368 16,000 -1,810 Descending FlightAware ADS-B
Wed 06:59:21 PM 40.6273 -74.0219 155° Southeast 315 362 15,100 -1,714 Descending FlightAware ADS-B
Wed 06:59:52 PM 40.5871 -73.9977 155° Southeast 312 359 14,200 -1,644 Descending FlightAware ADS-B
Wed 07:00:34 PM 40.5328 -73.9619 153° Southeast 308 354 13,100 -1,562 Descending FlightAware ADS-B
Wed 07:01:05 PM 40.5017 -73.9236 137° Southeast 307 353 12,300 -1,742 Descending FlightAware ADS-B
Wed 07:01:36 PM 40.4701 -73.8815 135° Southeast 307 353 11,300 -2,069 Descending FlightAware ADS-B
Wed 07:02:03 PM 40.4435 -73.8466 135° Southeast 302 348 10,300 -2,045 Descending FlightAware ADS-B
Wed 07:02:20 PM 40.4247 -73.8275 142° Southeast 297 342 9,800 -1,765 Descending FlightAware ADS-B
Wed 07:02:37 PM 40.4057 -73.8100 145° Southeast 294 338 9,300 -1,882 Descending FlightAware ADS-B
Wed 07:03:11 PM 40.3684 -73.7758 145° Southeast 291 335 8,200 -1,889 Descending FlightAware ADS-B
Wed 07:03:31 PM 40.3466 -73.7555 145° Southeast 288 331 7,600 -2,038 Descending FlightAware ADS-B
Wed 07:04:04 PM 40.3107 -73.7218 144° Southeast 290 334 6,400 -1,964 Descending FlightAware ADS-B
Wed 07:04:26 PM 40.2962 -73.6881 119° Southeast 287 330 5,800 -750 Descending FlightAware ADS-B
Wed 07:05:00 PM 40.2940 -73.6400 93° East 285 328 5,700 -1,333 Descending FlightAware ADS-B
Wed 07:05:20 PM 40.3310 -73.6200 22° Northeast 270 311 4,600 -2,217 Descending FlightAware ADS-B
Wed 07:05:46 PM 40.3590 -73.6010 27° Northeast 269 310 4,000 -1,021 Descending FlightAware ADS-B
Wed 07:06:07 PM 40.3820 -73.5850 28° Northeast 268 308 3,800 -146 Descending FlightAware ADS-B
Wed 07:06:27 PM 40.4040 -73.5700 27° Northeast 266 306 3,900 136 Climbing FlightAware ADS-B
Wed 07:06:51 PM 40.4310 -73.5510 28° Northeast 267 307 3,900  Level FlightAware ADS-B
Wed 07:07:11 PM 40.4540 -73.5350 28° Northeast 268 308 3,900  Level FlightAware ADS-B
Wed 07:07:31 PM 40.4740 -73.5210 28° Northeast 267 307 3,900 -150 Level FlightAware ADS-B
Wed 07:07:51 PM 40.4960 -73.5060 27° Northeast 255 293 3,800 -136 Descending FlightAware ADS-B
Wed 07:08:15 PM 40.5210 -73.4930 22° Northeast 232 267 3,800  Level FlightAware ADS-B
Wed 07:08:19 PM 40.5260 -73.4920 North 229 264 3,800 -500 Level FlightAware ADS-B
Wed 07:08:27 PM 40.5340 -73.4920 360° North 225 259 3,700 -857 Descending FlightAware ADS-B
Wed 07:08:47 PM 40.5550 -73.4930 358° North 221 254 3,400 -955 Descending FlightAware ADS-B
Wed 07:09:11 PM 40.5790 -73.4940 358° North 220 253 3,000 -818 Descending FlightAware ADS-B
Wed 07:09:31 PM 40.5990 -73.4950 358° North 224 258 2,800 -188 Descending FlightAware ADS-B
Wed 07:09:43 PM 40.6110 -73.4960 356° North 222 255 2,900 300 Climbing FlightAware ADS-B
Wed 07:09:51 PM 40.6190 -73.4990 344° North 220 253 2,900  Level FlightAware ADS-B
Wed 07:10:10 PM 40.6370 -73.5120 331° Northwest 220 253 2,900  Level FlightAware ADS-B
Wed 07:10:35 PM 40.6580 -73.5300 327° Northwest 219 252 2,900  Level FlightAware ADS-B
Wed 07:10:47 PM 40.6680 -73.5380 329° Northwest 219 252 2,900 -563 Level FlightAware ADS-B
Wed 07:11:07 PM 40.6850 -73.5520 328° Northwest 217 250 2,600 -955 Descending FlightAware ADS-B
Wed 07:11:31 PM 40.7060 -73.5680 330° Northwest 217 250 2,200 -818 Descending FlightAware ADS-B
Wed 07:11:51 PM 40.7240 -73.5830 328° Northwest 207 238 2,000 -615 Descending FlightAware ADS-B
Wed 07:12:10 PM 40.7390 -73.5940 331° Northwest 199 229 1,800 -150 Descending FlightAware ADS-B
Wed 07:12:31 PM 40.7540 -73.6060 329° Northwest 182 209 1,900 154 Climbing FlightAware ADS-B
Wed 07:12:49 PM 40.7650 -73.6170 323° Northwest 181 208 1,900  Level FlightAware ADS-B
Wed 07:13:02 PM 40.7690 -73.6270 298° West 173 199 1,900  Level FlightAware ADS-B
Wed 07:13:03 PM 40.7690 -73.6320 270° West 171 197 1,900  Level FlightAware ADS-B
Wed 07:13:29 PM 40.7610 -73.6560 246° West 168 193 1,900  Level FlightAware ADS-B
Wed 07:13:41 PM 40.7550 -73.6650 229° Southwest 168 193 1,900 -188 Level FlightAware ADS-B
Wed 07:14:01 PM 40.7420 -73.6790 219° Southwest 165 190 1,800 -267 Descending FlightAware ADS-B
Wed 07:14:26 PM 40.7280 -73.6900 211° Southwest 150 173 1,700 -400 Descending FlightAware ADS-B
Wed 07:14:46 PM 40.7160 -73.7000 212° Southwest 131 151 1,500 -600 Descending FlightAware ADS-B
Wed 07:15:06 PM 40.7060 -73.7070 208° Southwest 126 145 1,300 -600 Descending FlightAware ADS-B
Wed 07:15:26 PM 40.6960 -73.7150 211° Southwest 124 143 1,100 -714 Descending FlightAware ADS-B
Wed 07:15:48 PM 40.6850 -73.7240 212° Southwest 126 145 800 -682 Descending FlightAware ADS-B
Wed 07:16:10 PM 40.6740 -73.7320 209° Southwest 126 145 600 -571 Descending FlightAware ADS-B
Wed 07:16:30 PM 40.6650 -73.7400 214° Southwest 126 145 400 -750 Descending FlightAware ADS-B
Wed 07:16:50 PM 40.6540 -73.7480 209° Southwest 124 143 100 -900 Descending FlightAware ADS-B
Wed 07:17:14 PM 40.6420 -73.7570 210° Southwest 127 146 -250 Descending FlightAware ADS-B
Wed 07:17:34 PM 40.6340 -73.7640 214° Southwest 70 81  Level FlightAware ADS-B

Login

Don't have an account? Register now (free) for customized features, flight alerts, and more!